Gruver, Texas
Current Conditions -  °F | °C
As of 8:53 AM on Saturday 22 Nov 2014 (Local Time) from KGUY Reporting Station
Clear Clear  
Wind Chill: 35°   Ceiling: Unl
Heat Index: 40°   Visibility: 10mi
Dew Point: 29°   Wind: 7mph
Humidity: 65%   Direction: 260°W
Pressure: 29.9"   Gusts: NA
Location:  36.27°N, 101.41°W
Report Text: KGUY 221453Z AUTO 26006KT 10SM CLR 04/M02 A2990 RMK AO2 SLP118 T00441017 55008
Loading
Personal Weather Stations






























Interactive Weather Map New forecast layout! Learn more

10-Day Weather Forecast

Advertisements
Track Severe Weather on mobile